Time;durP1;ratioP1;P1;durP2;ratioP2;P2;SDS_P1;SDS_P2;PMS_P1;PMS_P2;Temp;Humidity;BMP_temperature;BMP_pressure;BME280_temperature;BME280_humidity;BME280_pressure;Samples;Min_cycle;Max_cycle;Signal;HPM_P1;HPM_P2
2023/11/26 00:02:15;;;;;;;27.15;6.88;;;;;;;4.80;100.00;100780.38;4997967;28;20050;-78
2023/11/26 00:04:43;;;;;;;18.63;7.32;;;;;;;4.77;100.00;100777.19;4997082;28;20110;-79
2023/11/26 00:07:10;;;;;;;20.83;7.38;;;;;;;4.73;100.00;100770.59;4990633;28;20125;-80
2023/11/26 00:09:36;;;;;;;20.13;7.22;;;;;;;4.68;100.00;100773.56;4997302;28;20213;-79
2023/11/26 00:12:04;;;;;;;19.85;6.93;;;;;;;4.79;100.00;100776.16;4997576;28;20047;-79
2023/11/26 00:14:31;;;;;;;18.75;7.07;;;;;;;4.84;100.00;100784.41;4997313;28;20050;-79
2023/11/26 00:16:58;;;;;;;23.33;6.97;;;;;;;4.86;100.00;100781.69;4992946;28;20082;-79
2023/11/26 00:19:27;;;;;;;20.20;7.05;;;;;;;4.78;100.00;100784.03;4993955;28;20046;-81
2023/11/26 00:21:54;;;;;;;22.27;7.45;;;;;;;4.85;100.00;100786.06;4998244;28;20481;-79
2023/11/26 00:24:21;;;;;;;20.98;7.07;;;;;;;4.77;100.00;100783.22;4996897;28;20134;-79
2023/11/26 00:26:48;;;;;;;17.02;6.75;;;;;;;4.90;100.00;100780.53;4996704;28;20061;-80
2023/11/26 00:29:15;;;;;;;19.10;6.90;;;;;;;4.79;100.00;100776.16;4996287;28;20050;-80
2023/11/26 00:31:41;;;;;;;16.25;6.88;;;;;;;4.76;100.00;100781.56;4988462;28;20073;-79
2023/11/26 00:34:08;;;;;;;19.08;6.65;;;;;;;4.81;100.00;100789.00;4996421;28;20134;-79
2023/11/26 00:36:35;;;;;;;23.38;7.28;;;;;;;4.79;100.00;100783.09;4997148;28;20050;-79
2023/11/26 00:39:03;;;;;;;20.42;7.78;;;;;;;4.92;100.00;100792.44;4989508;28;20069;-80
2023/11/26 00:41:30;;;;;;;21.75;7.97;;;;;;;4.79;100.00;100786.50;4998896;28;20074;-79
2023/11/26 00:43:59;;;;;;;27.38;9.05;;;;;;;4.82;100.00;100786.28;4999291;28;20046;-79
2023/11/26 00:46:26;;;;;;;26.38;8.50;;;;;;;4.87;100.00;100797.13;4997992;28;20057;-80
2023/11/26 00:48:53;;;;;;;20.17;9.10;;;;;;;4.81;100.00;100797.59;4992401;28;20154;-81
2023/11/26 00:51:20;;;;;;;22.55;8.80;;;;;;;4.86;100.00;100798.09;4996481;28;20133;-80
2023/11/26 00:53:48;;;;;;;23.15;9.57;;;;;;;4.87;100.00;100791.97;4996373;28;20184;-80
2023/11/26 00:56:16;;;;;;;26.17;9.57;;;;;;;4.95;100.00;100800.00;4996147;28;20077;-80
2023/11/26 00:58:43;;;;;;;20.73;10.73;;;;;;;4.89;100.00;100792.66;4988661;28;20524;-80
2023/11/26 01:01:10;;;;;;;25.48;10.20;;;;;;;4.96;100.00;100799.03;4996171;28;20054;-80
2023/11/26 01:03:37;;;;;;;26.95;9.90;;;;;;;4.94;100.00;100800.94;4995150;28;20046;-80
2023/11/26 01:06:04;;;;;;;22.25;10.52;;;;;;;4.82;100.00;100794.06;4992615;28;20514;-80
2023/11/26 01:08:30;;;;;;;22.73;10.57;;;;;;;4.93;100.00;100799.28;4993974;28;20113;-80
2023/11/26 01:10:57;;;;;;;28.65;10.75;;;;;;;4.97;100.00;100805.06;4996444;28;20136;-78
2023/11/26 01:13:29;;;;;;;24.20;10.93;;;;;;;5.04;100.00;100806.25;4996545;28;20078;-80
2023/11/26 01:15:55;;;;;;;29.20;11.20;;;;;;;5.07;100.00;100806.03;4996201;28;20058;-80
2023/11/26 01:18:22;;;;;;;19.80;10.10;;;;;;;5.02;100.00;100805.53;4990696;28;20125;-80
2023/11/26 01:20:49;;;;;;;21.38;9.77;;;;;;;4.94;100.00;100790.56;4997927;28;20054;-80
2023/11/26 01:23:16;;;;;;;22.95;9.70;;;;;;;5.01;100.00;100798.69;5002207;28;20046;-79
2023/11/26 01:25:42;;;;;;;21.13;9.63;;;;;;;5.05;100.00;100801.88;4996260;28;20563;-79
2023/11/26 01:28:09;;;;;;;23.05;11.13;;;;;;;5.08;100.00;100817.22;4994186;28;20153;-79
2023/11/26 01:30:37;;;;;;;26.65;10.18;;;;;;;4.88;100.00;100809.16;4987041;28;20114;-79
2023/11/26 01:33:04;;;;;;;26.08;10.05;;;;;;;4.98;100.00;100817.91;4995921;28;20118;-80
2023/11/26 01:35:31;;;;;;;22.05;9.50;;;;;;;4.90;100.00;100804.69;4995979;28;20047;-81
2023/11/26 01:37:57;;;;;;;25.35;8.85;;;;;;;4.77;100.00;100814.31;4996641;28;20138;-80
2023/11/26 01:40:24;;;;;;;21.88;9.43;;;;;;;4.84;100.00;100812.09;4992465;28;20137;-80
2023/11/26 01:42:50;;;;;;;19.83;10.07;;;;;;;4.73;100.00;100802.53;4998770;28;20069;-78
2023/11/26 01:45:17;;;;;;;19.25;9.43;;;;;;;4.71;100.00;100809.63;5000548;28;20094;-80
2023/11/26 01:47:45;;;;;;;18.73;9.40;;;;;;;4.61;100.00;100809.47;4999977;28;20163;-80
2023/11/26 01:50:20;;;;;;;26.40;10.60;;;;;;;4.62;100.00;100805.94;4998806;28;20139;-80
2023/11/26 01:52:46;;;;;;;28.70;10.02;;;;;;;4.57;100.00;100807.22;5001767;28;20089;-80
2023/11/26 01:55:13;;;;;;;30.25;11.02;;;;;;;4.57;100.00;100813.22;5000463;28;20046;-80
2023/11/26 01:57:40;;;;;;;26.58;11.02;;;;;;;4.57;100.00;100815.00;4996372;28;20110;-80
2023/11/26 02:00:08;;;;;;;30.67;13.45;;;;;;;4.70;100.00;100827.88;5001014;28;20065;-80
2023/11/26 02:02:35;;;;;;;30.88;13.55;;;;;;;4.72;100.00;100824.22;4996987;28;20077;-80
2023/11/26 02:05:03;;;;;;;26.15;12.93;;;;;;;4.65;100.00;100820.44;5002364;28;20046;-80
2023/11/26 02:07:30;;;;;;;33.60;14.32;;;;;;;4.63;100.00;100817.13;4999282;28;20138;-79
2023/11/26 02:09:57;;;;;;;28.05;13.25;;;;;;;4.65;100.00;100829.03;5002600;28;20116;-79
2023/11/26 02:12:24;;;;;;;24.35;11.95;;;;;;;4.66;100.00;100827.28;5001722;28;20137;-80
2023/11/26 02:14:50;;;;;;;29.95;11.65;;;;;;;4.57;100.00;100822.75;5001383;28;20046;-78
2023/11/26 02:17:17;;;;;;;29.42;10.00;;;;;;;4.56;100.00;100828.88;5001812;28;20085;-79
2023/11/26 02:19:44;;;;;;;22.77;9.98;;;;;;;4.67;100.00;100821.16;4995866;28;20424;-79
2023/11/26 02:22:12;;;;;;;20.75;9.45;;;;;;;4.68;100.00;100822.81;5001601;28;20145;-79
2023/11/26 02:24:44;;;;;;;22.88;10.32;;;;;;;4.59;100.00;100820.88;5001472;28;20113;-78
2023/11/26 02:27:11;;;;;;;28.17;10.25;;;;;;;4.57;100.00;100826.19;5001715;28;20046;-79
2023/11/26 02:29:38;;;;;;;22.60;8.88;;;;;;;4.51;100.00;100833.56;4999943;28;20050;-78
2023/11/26 02:32:06;;;;;;;23.40;10.07;;;;;;;4.44;100.00;100825.41;4997668;28;20521;-79
2023/11/26 02:34:33;;;;;;;23.98;9.60;;;;;;;4.44;100.00;100827.19;5002856;28;20077;-79
2023/11/26 02:37:00;;;;;;;21.10;9.98;;;;;;;4.39;100.00;100829.28;5002485;28;20078;-79
2023/11/26 02:39:28;;;;;;;24.50;9.43;;;;;;;4.39;100.00;100824.94;5000678;28;20462;-79
2023/11/26 02:41:56;;;;;;;20.67;9.93;;;;;;;4.46;100.00;100830.50;4996934;28;20070;-79
2023/11/26 02:44:23;;;;;;;24.88;9.90;;;;;;;4.42;100.00;100834.25;4990270;28;20066;-79
2023/11/26 02:46:49;;;;;;;16.77;9.90;;;;;;;4.39;100.00;100844.81;4999738;28;20051;-79
2023/11/26 02:49:16;;;;;;;22.20;10.15;;;;;;;4.41;100.00;100838.59;4999350;28;20054;-78
2023/11/26 02:51:43;;;;;;;27.00;10.85;;;;;;;4.47;100.00;100848.53;5000537;28;20050;-79
2023/11/26 02:54:08;;;;;;;23.33;9.88;;;;;;;4.43;100.00;100846.25;4993413;28;20063;-79
2023/11/26 02:56:35;;;;;;;21.85;9.70;;;;;;;4.41;100.00;100842.94;4998457;28;20073;-80
2023/11/26 02:59:03;;;;;;;24.10;10.55;;;;;;;4.40;100.00;100851.66;4993869;28;20138;-79
2023/11/26 03:01:30;;;;;;;29.05;9.93;;;;;;;4.21;100.00;100849.59;4999222;28;20097;-78
2023/11/26 03:03:57;;;;;;;26.77;9.95;;;;;;;4.24;100.00;100845.00;5000788;28;20062;-79
2023/11/26 03:06:26;;;;;;;27.83;11.90;;;;;;;4.14;100.00;100845.78;5001667;28;20050;-78
2023/11/26 03:08:59;;;;;;;20.45;11.25;;;;;;;4.03;100.00;100843.94;5001644;28;20046;-79
2023/11/26 03:14:13;;;;;;;30.52;10.95;;;;;;;3.99;100.00;100837.31;5001184;28;20068;-79
2023/11/26 03:16:44;;;;;;;27.27;11.40;;;;;;;3.80;100.00;100848.13;5001681;28;20074;-79
2023/11/26 03:19:11;;;;;;;24.52;10.80;;;;;;;3.85;100.00;100845.22;5000037;28;20046;-79
2023/11/26 03:21:38;;;;;;;21.88;11.10;;;;;;;3.84;100.00;100838.41;5006337;28;20070;-78
2023/11/26 03:24:07;;;;;;;25.20;11.43;;;;;;;3.75;100.00;100852.84;5017208;28;20049;-76
2023/11/26 03:26:36;;;;;;;28.23;11.35;;;;;;;3.79;100.00;100851.66;5014822;28;20065;-78
2023/11/26 03:29:03;;;;;;;23.52;11.82;;;;;;;3.78;100.00;100844.81;5009508;28;20138;-79
2023/11/26 03:31:31;;;;;;;29.48;12.43;;;;;;;3.87;100.00;100856.31;5001317;28;20426;-79
2023/11/26 03:33:58;;;;;;;30.27;13.05;;;;;;;3.76;100.00;100848.50;5001059;28;20519;-79
2023/11/26 03:36:24;;;;;;;29.65;12.35;;;;;;;3.77;100.00;100857.91;5003859;28;20046;-80
2023/11/26 03:38:52;;;;;;;35.10;14.18;;;;;;;3.74;100.00;100851.19;5006063;28;20054;-79
2023/11/26 03:41:19;;;;;;;31.52;13.02;;;;;;;3.81;100.00;100854.16;5001568;28;20073;-79
2023/11/26 03:43:46;;;;;;;28.92;12.98;;;;;;;3.83;100.00;100860.88;4997613;28;20145;-79
2023/11/26 03:46:12;;;;;;;26.05;14.00;;;;;;;3.81;100.00;100864.50;4998103;28;20536;-79
2023/11/26 03:48:45;;;;;;;35.25;14.15;;;;;;;3.89;100.00;100859.63;4997337;28;20125;-79
2023/11/26 03:51:15;;;;;;;32.13;13.85;;;;;;;3.85;100.00;100865.94;4996260;28;20062;-79
2023/11/26 03:53:42;;;;;;;32.55;14.10;;;;;;;3.71;100.00;100855.75;4989121;28;20459;-79
2023/11/26 03:56:09;;;;;;;33.30;15.43;;;;;;;3.80;100.00;100874.03;4997140;28;20057;-78
2023/11/26 03:58:36;;;;;;;31.65;14.50;;;;;;;3.83;100.00;100872.97;4996608;28;20153;-79
2023/11/26 04:01:03;;;;;;;38.65;17.02;;;;;;;3.79;100.00;100867.19;4999625;28;20504;-78
2023/11/26 04:03:29;;;;;;;41.28;17.30;;;;;;;3.75;100.00;100870.97;5001063;28;20057;-79
2023/11/26 04:05:57;;;;;;;40.83;16.50;;;;;;;3.80;100.00;100866.25;5000046;28;20512;-79
2023/11/26 04:08:24;;;;;;;48.42;16.92;;;;;;;3.82;100.00;100869.56;4995863;28;20142;-79
2023/11/26 04:10:51;;;;;;;31.00;16.63;;;;;;;3.84;100.00;100859.09;5000793;28;20078;-79
2023/11/26 04:13:18;;;;;;;39.53;17.50;;;;;;;3.83;100.00;100863.47;5000824;28;20100;-79
2023/11/26 04:15:46;;;;;;;39.38;16.60;;;;;;;3.77;100.00;100863.91;5001257;28;20052;-79
2023/11/26 04:18:13;;;;;;;32.58;17.20;;;;;;;3.79;100.00;100856.00;5001665;28;20077;-79
2023/11/26 04:20:40;;;;;;;42.58;16.55;;;;;;;3.78;100.00;100864.75;5000728;28;20077;-79
2023/11/26 04:23:08;;;;;;;32.83;16.25;;;;;;;3.73;100.00;100866.81;4999966;28;20373;-78
2023/11/26 04:25:34;;;;;;;35.97;16.52;;;;;;;3.75;100.00;100857.19;4990822;28;20157;-78
2023/11/26 04:28:01;;;;;;;31.92;16.92;;;;;;;3.79;100.00;100863.78;4998152;28;20055;-78
2023/11/26 04:30:28;;;;;;;38.53;18.75;;;;;;;3.76;100.00;100864.03;4991237;28;20054;-78
2023/11/26 04:32:55;;;;;;;34.65;16.27;;;;;;;3.81;100.00;100859.31;5002220;28;20084;-79
2023/11/26 04:35:21;;;;;;;42.70;17.40;;;;;;;3.78;100.00;100860.34;5001104;28;20477;-79
2023/11/26 04:37:48;;;;;;;40.90;19.13;;;;;;;3.84;100.00;100866.88;5002366;28;20050;-80
2023/11/26 04:40:17;;;;;;;48.85;19.08;;;;;;;3.93;100.00;100869.66;4994785;28;20089;-79
2023/11/26 04:42:44;;;;;;;39.13;19.35;;;;;;;3.96;100.00;100858.25;5002686;28;20050;-79
2023/11/26 04:45:13;;;;;;;39.70;20.42;;;;;;;4.03;100.00;100872.44;5000960;28;20054;-80
2023/11/26 04:47:40;;;;;;;46.10;21.23;;;;;;;4.00;100.00;100870.88;5000531;28;20047;-79
2023/11/26 04:50:10;;;;;;;50.15;22.08;;;;;;;4.06;100.00;100869.63;4993224;28;20134;-79
2023/11/26 04:52:36;;;;;;;49.90;22.55;;;;;;;4.16;100.00;100872.41;4993455;28;20074;-79
2023/11/26 04:55:03;;;;;;;43.03;21.15;;;;;;;4.18;100.00;100871.34;4999014;28;20084;-78
2023/11/26 04:57:31;;;;;;;42.33;22.17;;;;;;;4.24;100.00;100881.28;4997511;28;20050;-78
2023/11/26 04:59:58;;;;;;;51.22;24.33;;;;;;;4.30;100.00;100872.22;4995228;28;20516;-78
2023/11/26 05:02:24;;;;;;;52.78;23.05;;;;;;;4.09;100.00;100873.75;4997625;28;20050;-78
2023/11/26 05:04:51;;;;;;;58.78;23.95;;;;;;;4.06;100.00;100879.16;4997108;28;20129;-79
2023/11/26 05:07:18;;;;;;;44.88;22.83;;;;;;;4.14;100.00;100880.28;5000093;28;20070;-78
2023/11/26 05:09:45;;;;;;;47.30;22.80;;;;;;;4.11;100.00;100877.91;4991362;28;20085;-78
2023/11/26 05:12:12;;;;;;;52.15;23.65;;;;;;;4.08;100.00;100872.94;4997175;28;20050;-78
2023/11/26 05:14:40;;;;;;;56.28;23.17;;;;;;;4.15;100.00;100879.34;4987720;28;20120;-78
2023/11/26 05:17:07;;;;;;;48.78;22.83;;;;;;;4.14;100.00;100882.03;4995328;28;20129;-78
2023/11/26 05:19:34;;;;;;;49.45;21.85;;;;;;;4.10;100.00;100881.41;4992004;28;20477;-79
2023/11/26 05:22:01;;;;;;;54.72;24.17;;;;;;;4.18;100.00;100886.06;5001152;28;20053;-81
2023/11/26 05:24:28;;;;;;;47.78;22.52;;;;;;;4.18;100.00;100884.31;5002469;28;20199;-79
2023/11/26 05:26:54;;;;;;;51.25;21.60;;;;;;;4.26;100.00;100889.75;5002955;28;20516;-79
2023/11/26 05:29:21;;;;;;;57.42;23.90;;;;;;;4.24;100.00;100883.88;5001438;28;20133;-80
2023/11/26 05:31:49;;;;;;;53.00;22.98;;;;;;;4.21;100.00;100889.28;5001678;28;20114;-80
2023/11/26 05:34:15;;;;;;;61.65;24.67;;;;;;;4.20;100.00;100887.59;5002115;28;20073;-80
2023/11/26 05:36:42;;;;;;;52.20;22.92;;;;;;;4.21;100.00;100898.78;5001993;28;20066;-80
2023/11/26 05:39:08;;;;;;;52.03;22.73;;;;;;;4.12;100.00;100884.72;5002720;28;20133;-80
2023/11/26 05:41:35;;;;;;;54.53;23.30;;;;;;;4.24;100.00;100894.22;5002796;28;20145;-80
2023/11/26 05:44:02;;;;;;;53.53;23.60;;;;;;;4.22;100.00;100900.47;5002346;28;20046;-80
2023/11/26 05:46:28;;;;;;;49.47;23.23;;;;;;;4.16;100.00;100896.53;5002781;28;20081;-80
2023/11/26 05:48:57;;;;;;;55.13;23.50;;;;;;;4.31;100.00;100899.78;4994918;28;20444;-80
2023/11/26 05:51:24;;;;;;;56.70;24.58;;;;;;;4.23;100.00;100891.75;5001517;28;20178;-79
2023/11/26 05:53:50;;;;;;;51.40;23.73;;;;;;;4.32;100.00;100897.06;5000773;28;20153;-79
2023/11/26 05:56:17;;;;;;;51.15;23.02;;;;;;;4.35;100.00;100898.63;5001229;28;20161;-79
2023/11/26 05:58:44;;;;;;;56.28;23.42;;;;;;;4.34;100.00;100902.16;4999044;28;20078;-79
2023/11/26 06:01:10;;;;;;;58.55;23.83;;;;;;;4.49;100.00;100901.06;4998399;28;20492;-79
2023/11/26 06:03:37;;;;;;;46.65;22.95;;;;;;;4.55;100.00;100897.19;4998310;28;20101;-79
2023/11/26 06:06:06;;;;;;;56.22;24.40;;;;;;;4.66;100.00;100895.50;4993265;28;20096;-80
2023/11/26 06:08:32;;;;;;;47.85;23.20;;;;;;;4.47;100.00;100896.94;5001428;28;20105;-80
2023/11/26 06:10:59;;;;;;;49.85;21.98;;;;;;;4.53;100.00;100901.66;4998705;28;20058;-79
2023/11/26 06:13:27;;;;;;;51.03;23.67;;;;;;;4.57;100.00;100903.94;4999988;28;20074;-80
2023/11/26 06:15:53;;;;;;;45.28;23.67;;;;;;;4.46;100.00;100908.22;5002957;28;20058;-79
2023/11/26 06:18:20;;;;;;;50.50;22.55;;;;;;;4.49;100.00;100898.47;5000218;28;20559;-79
2023/11/26 06:20:48;;;;;;;56.33;23.88;;;;;;;4.50;100.00;100914.84;5000196;28;20083;-79
2023/11/26 06:23:16;;;;;;;58.58;23.45;;;;;;;4.57;100.00;100916.06;4995001;28;20425;-79
2023/11/26 06:25:43;;;;;;;59.92;23.98;;;;;;;4.49;100.00;100911.44;4992774;28;20057;-79
2023/11/26 06:28:10;;;;;;;51.15;23.65;;;;;;;4.44;100.00;100910.09;5000013;28;20066;-79
2023/11/26 06:30:37;;;;;;;54.50;23.50;;;;;;;4.39;100.00;100912.19;5000499;28;20066;-79
2023/11/26 06:33:04;;;;;;;49.10;23.30;;;;;;;4.41;100.00;100907.72;5003272;28;20118;-79
2023/11/26 06:35:32;;;;;;;47.90;23.20;;;;;;;4.36;100.00;100909.81;4999882;28;20057;-79
2023/11/26 06:38:01;;;;;;;48.92;23.52;;;;;;;4.41;100.00;100902.53;5003293;28;20047;-78
2023/11/26 06:40:29;;;;;;;43.85;23.02;;;;;;;4.33;100.00;100903.91;5000836;28;20103;-78
2023/11/26 06:42:56;;;;;;;53.55;22.63;;;;;;;4.31;100.00;100902.38;4999339;28;20429;-77
2023/11/26 06:45:22;;;;;;;53.20;22.40;;;;;;;4.29;100.00;100906.81;5002340;28;20046;-79
2023/11/26 06:47:49;;;;;;;42.13;21.15;;;;;;;4.31;100.00;100908.38;4998329;28;20161;-79
2023/11/26 06:50:16;;;;;;;43.35;22.02;;;;;;;4.29;100.00;100902.47;5003259;28;20100;-79
2023/11/26 06:52:42;;;;;;;51.88;22.50;;;;;;;4.39;100.00;100909.59;5003348;28;20110;-79
2023/11/26 06:55:10;;;;;;;50.47;22.55;;;;;;;4.36;100.00;100909.81;5001443;28;20499;-79
2023/11/26 06:57:38;;;;;;;45.83;20.85;;;;;;;4.40;100.00;100911.25;5002644;28;20046;-79
2023/11/26 07:00:06;;;;;;;42.58;23.38;;;;;;;4.48;100.00;100911.53;5003216;28;20047;-79
2023/11/26 07:02:33;;;;;;;47.70;21.83;;;;;;;4.51;100.00;100911.31;5002871;28;20057;-79
2023/11/26 07:05:00;;;;;;;47.58;22.90;;;;;;;4.54;100.00;100905.91;5003066;28;20141;-79
2023/11/26 07:07:26;;;;;;;47.22;23.95;;;;;;;4.48;100.00;100902.00;5001737;28;20061;-79
2023/11/26 07:09:53;;;;;;;54.85;24.60;;;;;;;4.57;100.00;100910.88;5003483;28;20050;-79
2023/11/26 07:12:20;;;;;;;48.33;21.92;;;;;;;4.59;100.00;100903.81;5003590;28;20054;-80
2023/11/26 07:14:50;;;;;;;50.13;23.77;;;;;;;4.56;100.00;100904.03;5003297;28;20093;-79
2023/11/26 07:17:16;;;;;;;47.20;25.13;;;;;;;4.56;100.00;100901.44;5001638;28;20048;-79
2023/11/26 07:19:44;;;;;;;49.30;25.55;;;;;;;4.72;100.00;100904.59;4995380;28;20074;-79
2023/11/26 07:22:11;;;;;;;47.03;24.63;;;;;;;4.73;100.00;100910.56;5009315;28;20077;-79
2023/11/26 07:24:40;;;;;;;51.22;25.25;;;;;;;4.65;100.00;100905.97;5005081;28;20058;-80
2023/11/26 07:27:07;;;;;;;54.85;25.48;;;;;;;4.61;100.00;100904.53;5006891;28;20065;-80
2023/11/26 07:29:34;;;;;;;52.47;23.75;;;;;;;4.65;100.00;100908.56;5007445;28;20081;-80
2023/11/26 07:32:03;;;;;;;47.38;24.73;;;;;;;4.71;100.00;100889.16;5007371;28;20047;-79
2023/11/26 07:34:29;;;;;;;47.63;26.33;;;;;;;4.69;100.00;100899.63;5001543;28;20072;-79
2023/11/26 07:36:56;;;;;;;55.00;25.00;;;;;;;4.71;100.00;100892.56;5001280;28;20047;-79
2023/11/26 07:39:24;;;;;;;52.38;26.23;;;;;;;4.70;100.00;100901.28;4990392;28;20042;-79
2023/11/26 07:41:50;;;;;;;60.47;27.42;;;;;;;4.74;100.00;100892.31;4988486;28;20081;-80
2023/11/26 07:44:18;;;;;;;52.03;25.88;;;;;;;4.78;100.00;100898.94;5001456;28;20297;-79
2023/11/26 07:46:45;;;;;;;54.40;26.20;;;;;;;4.77;100.00;100901.63;5001381;28;20042;-79
2023/11/26 07:49:13;;;;;;;48.83;24.23;;;;;;;4.81;100.00;100900.47;5000718;28;20084;-79
2023/11/26 07:51:39;;;;;;;59.13;26.70;;;;;;;4.86;100.00;100904.38;5000906;28;20054;-79
2023/11/26 07:54:06;;;;;;;54.78;26.55;;;;;;;4.88;100.00;100906.88;5001073;28;20150;-79
2023/11/26 07:56:38;;;;;;;55.03;25.73;;;;;;;4.88;100.00;100914.66;5001531;28;20433;-79
2023/11/26 07:59:06;;;;;;;52.83;25.35;;;;;;;4.89;100.00;100917.13;4993093;28;20050;-79
2023/11/26 08:01:33;;;;;;;50.55;24.70;;;;;;;4.95;100.00;100919.28;5002660;28;20088;-80
2023/11/26 08:04:00;;;;;;;49.20;23.15;;;;;;;5.00;100.00;100921.53;5001164;28;20393;-80
2023/11/26 08:06:29;;;;;;;55.80;25.15;;;;;;;5.07;100.00;100919.31;5003820;28;20046;-80
2023/11/26 08:08:57;;;;;;;54.17;24.13;;;;;;;5.16;100.00;100908.25;5003852;28;20141;-78
2023/11/26 08:11:24;;;;;;;48.83;24.20;;;;;;;5.17;100.00;100904.72;4998901;28;20050;-79
2023/11/26 08:13:50;;;;;;;51.03;23.77;;;;;;;5.20;100.00;100909.69;5011631;28;20042;-79
2023/11/26 08:16:17;;;;;;;49.55;22.88;;;;;;;5.25;100.00;100908.38;5008491;28;20081;-79
2023/11/26 08:18:45;;;;;;;54.47;23.20;;;;;;;5.32;100.00;100906.16;5012867;28;20467;-79
2023/11/26 08:21:11;;;;;;;47.97;22.90;;;;;;;5.42;100.00;100909.72;5000848;28;20054;-79
2023/11/26 08:23:43;;;;;;;47.88;22.27;;;;;;;5.40;100.00;100909.00;5000101;28;20065;-79
2023/11/26 08:26:11;;;;;;;47.33;22.25;;;;;;;5.58;100.00;100915.41;5004214;28;20057;-79
2023/11/26 08:28:38;;;;;;;53.22;22.58;;;;;;;5.63;100.00;100912.47;5003963;28;20054;-80
2023/11/26 08:31:06;;;;;;;45.50;22.30;;;;;;;5.63;100.00;100908.09;5003835;28;20066;-80
2023/11/26 08:33:38;;;;;;;50.25;22.60;;;;;;;5.55;100.00;100897.47;5002695;28;20050;-79
2023/11/26 08:36:06;;;;;;;44.13;23.23;;;;;;;5.63;100.00;100902.91;4986786;28;20110;-80
2023/11/26 08:38:36;;;;;;;42.65;21.55;;;;;;;5.65;100.00;100898.41;5001803;28;20058;-79
2023/11/26 08:41:12;;;;;;;41.05;21.02;;;;;;;5.73;100.00;100904.75;4999383;28;20092;-81
2023/11/26 08:43:41;;;;;;;44.85;21.05;;;;;;;5.74;100.00;100902.03;4995451;28;20130;-81
2023/11/26 08:46:09;;;;;;;46.95;20.98;;;;;;;5.71;100.00;100902.28;5003378;28;20534;-81
2023/11/26 08:48:36;;;;;;;44.33;20.15;;;;;;;5.81;100.00;100902.41;5002153;28;20113;-80
2023/11/26 08:51:03;;;;;;;41.45;19.48;;;;;;;5.86;100.00;100903.72;4999435;28;20149;-81
2023/11/26 08:53:29;;;;;;;40.08;20.25;;;;;;;5.88;100.00;100906.19;4998931;28;20070;-80
2023/11/26 08:55:56;;;;;;;44.45;20.67;;;;;;;5.93;100.00;100901.50;4998720;28;20046;-81
2023/11/26 08:58:24;;;;;;;39.00;20.42;;;;;;;5.98;100.00;100902.78;5000173;28;20109;-81
2023/11/26 09:00:51;;;;;;;40.67;19.42;;;;;;;5.96;100.00;100909.03;4996218;28;20449;-81
2023/11/26 09:03:17;;;;;;;43.42;19.88;;;;;;;5.97;100.00;100902.91;4997259;28;20089;-81
2023/11/26 09:05:44;;;;;;;41.13;19.48;;;;;;;5.88;100.00;100908.78;4992628;28;20050;-81
2023/11/26 09:08:11;;;;;;;40.75;19.42;;;;;;;5.91;100.00;100911.19;4997933;28;20080;-81
2023/11/26 09:10:38;;;;;;;38.25;19.65;;;;;;;6.13;100.00;100905.97;4999458;28;20082;-79
2023/11/26 09:13:04;;;;;;;39.55;19.42;;;;;;;6.13;100.00;100900.78;5001430;28;20377;-80
2023/11/26 09:15:36;;;;;;;37.70;20.70;;;;;;;6.04;100.00;100901.50;4999952;28;20054;-81
2023/11/26 09:18:04;;;;;;;34.80;18.85;;;;;;;6.12;100.00;100899.13;4995431;28;20074;-81
2023/11/26 09:20:30;;;;;;;40.28;19.83;;;;;;;6.24;100.00;100903.31;4988862;28;20183;-80
2023/11/26 09:22:57;;;;;;;36.92;18.58;;;;;;;6.20;100.00;100896.72;4997135;28;20082;-78
2023/11/26 09:25:23;;;;;;;41.83;19.02;;;;;;;6.21;100.00;100895.75;4990660;28;20115;-80
2023/11/26 09:27:50;;;;;;;35.75;17.70;;;;;;;6.30;100.00;100889.84;4997140;28;20085;-80
2023/11/26 09:30:17;;;;;;;38.42;18.83;;;;;;;6.40;100.00;100886.53;4997662;28;20167;-79
2023/11/26 09:32:45;;;;;;;33.42;17.20;;;;;;;6.39;100.00;100884.88;4997157;28;20086;-79
2023/11/26 09:35:11;;;;;;;32.53;17.90;;;;;;;6.43;100.00;100887.09;4996185;28;20050;-79
2023/11/26 09:37:38;;;;;;;30.40;16.98;;;;;;;6.47;100.00;100888.50;4997473;28;20146;-80
2023/11/26 09:40:06;;;;;;;38.15;17.48;;;;;;;6.59;100.00;100904.91;4993453;28;20121;-79
2023/11/26 09:42:33;;;;;;;31.95;17.38;;;;;;;6.57;100.00;100888.59;4996823;28;20092;-79
2023/11/26 09:45:01;;;;;;;34.42;17.20;;;;;;;6.58;100.00;100898.06;4993041;28;20073;-79
2023/11/26 09:47:28;;;;;;;36.35;16.58;;;;;;;6.47;100.00;100892.88;4995936;28;20131;-79
2023/11/26 09:49:56;;;;;;;35.97;17.63;;;;;;;6.54;100.00;100894.03;4996430;28;20070;-80
2023/11/26 09:52:25;;;;;;;39.83;16.73;;;;;;;6.62;100.00;100899.41;4992827;28;20117;-79
2023/11/26 09:54:52;;;;;;;30.73;16.90;;;;;;;6.61;100.00;100896.03;4995313;28;20046;-79
2023/11/26 09:57:18;;;;;;;28.45;16.27;;;;;;;6.44;100.00;100899.16;4996460;28;20508;-79
2023/11/26 09:59:46;;;;;;;34.75;16.30;;;;;;;6.52;100.00;100888.97;4993631;28;20061;-80
2023/11/26 10:02:13;;;;;;;36.80;17.63;;;;;;;6.58;100.00;100901.47;4994892;28;20058;-79
2023/11/26 10:04:47;;;;;;;27.63;15.77;;;;;;;6.58;100.00;100891.06;4996412;28;20141;-79
2023/11/26 10:07:16;;;;;;;32.03;16.48;;;;;;;6.47;100.00;100888.50;4998923;28;20066;-79
2023/11/26 10:09:59;;;;;;;32.10;16.50;;;;;;;6.57;100.00;100889.41;4997994;28;20114;-79
2023/11/26 10:12:26;;;;;;;26.33;15.93;;;;;;;6.63;100.00;100893.28;4998575;28;20054;-80
2023/11/26 10:15:04;;;;;;;34.10;16.85;;;;;;;6.58;100.00;100888.47;4994802;28;20133;-79
2023/11/26 10:17:31;;;;;;;33.97;17.02;;;;;;;6.62;100.00;100889.03;4998834;28;20050;-78
2023/11/26 10:20:16;;;;;;;41.92;17.10;;;;;;;6.78;100.00;100892.03;4999486;28;20055;-77
2023/11/26 10:22:47;;;;;;;33.42;15.52;;;;;;;6.82;100.00;100892.63;5000840;28;20122;-78
2023/11/26 10:25:14;;;;;;;29.85;15.90;;;;;;;6.77;100.00;100890.38;4999122;28;20145;-78
2023/11/26 10:27:43;;;;;;;33.58;16.35;;;;;;;6.69;100.00;100887.56;4999232;28;20047;-79
2023/11/26 10:30:23;;;;;;;31.38;15.85;;;;;;;6.84;100.00;100886.34;5006259;28;20144;-79
2023/11/26 10:32:56;;;;;;;28.13;15.80;;;;;;;6.98;100.00;100878.22;5005853;28;20054;-79
2023/11/26 10:35:23;;;;;;;37.75;15.15;;;;;;;6.93;100.00;100869.97;5001935;28;20042;-79
2023/11/26 10:37:51;;;;;;;28.95;15.80;;;;;;;6.99;100.00;100869.47;4999128;28;20073;-79
2023/11/26 10:40:18;;;;;;;31.60;16.17;;;;;;;7.02;100.00;100871.00;5001174;28;20210;-79
2023/11/26 10:42:47;;;;;;;27.75;14.30;;;;;;;7.07;100.00;100876.66;4993579;28;20054;-80
2023/11/26 10:45:14;;;;;;;28.27;14.30;;;;;;;7.10;100.00;100870.34;4999510;28;20054;-79
2023/11/26 10:47:41;;;;;;;27.63;14.30;;;;;;;7.14;100.00;100869.13;5002566;28;20141;-79
2023/11/26 10:50:10;;;;;;;25.25;15.35;;;;;;;7.11;100.00;100866.78;5000212;28;20050;-80
2023/11/26 10:52:43;;;;;;;19.23;12.77;;;;;;;7.07;100.00;100866.25;5002929;28;20064;-79
2023/11/26 10:55:18;;;;;;;25.75;13.70;;;;;;;7.05;100.00;100862.13;4996738;28;20054;-79
2023/11/26 10:57:50;;;;;;;26.30;14.20;;;;;;;7.07;100.00;100860.22;4997463;28;20109;-80
2023/11/26 11:00:20;;;;;;;28.23;14.32;;;;;;;7.18;100.00;100867.91;5002174;28;20051;-80
2023/11/26 11:02:49;;;;;;;28.00;15.07;;;;;;;7.10;100.00;100855.53;5000494;28;20054;-80
2023/11/26 11:05:19;;;;;;;26.20;15.20;;;;;;;7.05;100.00;100856.91;5000455;28;20144;-80
2023/11/26 11:07:46;;;;;;;28.52;14.60;;;;;;;7.03;100.00;100858.81;4989210;28;20155;-80
2023/11/26 11:10:24;;;;;;;25.25;15.00;;;;;;;7.13;100.00;100859.66;4996646;28;20058;-82
2023/11/26 11:12:54;;;;;;;30.48;16.10;;;;;;;7.04;100.00;100857.88;4991591;28;20446;-80
2023/11/26 11:15:23;;;;;;;26.33;14.52;;;;;;;6.99;100.00;100860.84;5001226;28;20058;-80